Архив погоды в Среднеколымске

Метеограмма Среднеколымск
Понедельник, 24 Июня
Время местн. Темп Ветер Видим Явления Облачность нижн/средн/верх Атм. давл. Влжн Точка росы ВНГО R Сост. почвы Tg s
Напр Скр Прв ур.ст ур.м изм
23:00 +20.1° Ю-В 2 - более 50 км - переменная облачность 761 764 +0.5 62% +12.7° более 2.5 км - - - -
20:00 +23.8° Ю,Ю-В 3 - 50 км - облачно 761 763 +0.3 29% +4.9° более 2.5 км 0 - - -
17:00 +24.7° Ю,Ю-В 4 11 более 50 км - облачно с прояснениями 760 763 -0.2 26% +3.9° 1.5 км - - - -
14:00 +23.3° Ю-В 4 - более 50 км - переменная облачность 761 763 -0.1 28% +4° 1.5 км - - - -
11:00 +23° Ю-В 3 - 50 км - переменная облачность 761 763 +0.2 34% +6.5° 1.5 км - - - -
08:00 +20.5° Ю,Ю-В 1 - более 50 км - ясно 760 763 +0.5 48% +9° более 2.5 км 0 Влажная (без луж) +9° -
05:00 +15.8° штиль 0 - 50 км - ясно 760 763 +0.5 78% +12° более 2.5 км - - - -
02:00 +14.1° штиль 0 - 50 км - переменная облачность 760 762 +0.3 80% +10.7° более 2.5 км - - - -
Воскресенье, 23 Июня
Время местн. Темп Ветер Видим Явления Облачность нижн/средн/верх Атм. давл. Влжн Точка росы ВНГО R Сост. почвы Tg s
Напр Скр Прв ур.ст ур.м изм
23:00 +18.2° В 1 - более 50 км - переменная облачность 759 762 +0.5 60% +10.2° 1 км - - - -
20:00 +21.3° В 2 - 50 км - переменная облачность 759 762 +0.2 50% +10.5° 1 км 0 - - -
17:00 +23.7° В 3 - 50 км - облачно с прояснениями 759 761 -0.3 35% +7.3° 1 км - - - -
14:00 +22.5° С-В 3 - 50 км - облачно с прояснениями 759 762 -0.6 50% +11.7° 1 км - - - -
11:00 +19.6° С,С-В 3 - 50 км - переменная облачность 759 762 -0.4 64% +12.7° 1 км - - - -
08:00 +16.3° В 3 - более 50 км - переменная облачность 760 763 +0.2 75% +11.9° 1.5 км 0 Влажная (без луж) +13° -
05:00 +14.5° В 3 - 50 км - переменная облачность 760 762 +0.5 81% +11.3° - - - - -
02:00 +15.8° В 2 - более 50 км - переменная облачность 759 762 +0.2 89% +14° 1.5 км - - - -
Суббота, 22 Июня
Время местн. Темп Ветер Видим Явления Облачность нижн/средн/верх Атм. давл. Влжн Точка росы ВНГО R Сост. почвы Tg s
Напр Скр Прв ур.ст ур.м изм
23:00 +19.2° В 2 - 50 км - переменная облачность 759 762 +0.2 75% +14.6° 1.5 км - - - -
20:00 +21.6° В 3 - 50 км - переменная облачность 759 762 +0.2 56% +12.5° 1 км 0 - - -
17:00 +23.6° В 3 - более 50 км - облачно с прояснениями 759 761 -0.4 51% +12.9° 1 км - - - -
14:00 +23.3° С-В 3 - 50 км - переменная облачность 759 762 -0.8 52% +12.9° 1.5 км - - - -
11:00 +21.4° В 3 - более 50 км - переменная облачность 760 763 -0.1 59% +13° 1.5 км - - - -
08:00 +17.6° С-В 2 - 50 км - облачно 760 763 +0.3 72% +12.6° 1.5 км 0 Влажная (без луж) - -
05:00 +14.3° С,С-В 2 - более 50 км - переменная облачность 760 762 +0.8 83% +11.5° более 2.5 км - - - -
02:00 +13.9° С,С-В 3 - более 50 км - переменная облачность 759 762 +0.5 82% +10.9° более 2.5 км - - - -
Пятница, 21 Июня
Время местн. Темп Ветер Видим Явления Облачность нижн/средн/верх Атм. давл. Влжн Точка росы ВНГО R Сост. почвы Tg s
Напр Скр Прв ур.ст ур.м изм
23:00 +18.3° С,С-В 3 - 50 км - облачно с прояснениями 758 761 +0.8 57% +9.6° - - - - -
20:00 +21.3° С,С-В 3 - более 50 км - переменная облачность 758 760 +0.4 41% +7.6° более 2.5 км 0 - - -